createdAt,value
2023-03-29T00:00:07.057Z,83.6
2023-03-29T00:01:01.983Z,83.5
2023-03-29T00:02:02.306Z,83.5
2023-03-29T00:03:01.835Z,83.5
2023-03-29T00:04:02.830Z,83.3
2023-03-29T00:05:03.383Z,83.2
2023-03-29T00:06:02.184Z,83
2023-03-29T00:07:01.631Z,82.9
2023-03-29T00:08:02.133Z,82.9
2023-03-29T00:09:03.301Z,83
2023-03-29T00:10:02.115Z,83.1
2023-03-29T00:11:01.777Z,83.5
2023-03-29T00:12:02.138Z,83.7
2023-03-29T00:13:01.538Z,83.8
2023-03-29T00:14:02.034Z,84.1
2023-03-29T00:15:01.554Z,84.3
2023-03-29T00:16:02.034Z,84.4
2023-03-29T00:17:01.524Z,84.5
2023-03-29T00:18:03.687Z,84.3
2023-03-29T00:19:01.507Z,84.3
2023-03-29T00:20:03.624Z,84.1
2023-03-29T00:21:01.605Z,83.9
2023-03-29T00:22:03.566Z,83.6
2023-03-29T00:23:01.402Z,83.3
2023-03-29T00:24:01.891Z,83.1
2023-03-29T00:25:02.998Z,83
2023-03-29T00:26:01.798Z,82.9
2023-03-29T00:27:02.273Z,82.7
2023-03-29T00:28:01.811Z,82.5
2023-03-29T00:29:02.264Z,82.4
2023-03-29T00:30:01.786Z,82.3
2023-03-29T00:31:02.501Z,82.1
2023-03-29T00:32:01.710Z,81.9
2023-03-29T00:33:02.285Z,81.5
2023-03-29T00:34:01.717Z,81.2
2023-03-29T00:35:02.197Z,80.9
2023-03-29T00:36:01.777Z,81.1
2023-03-29T00:37:02.185Z,81.1
2023-03-29T00:38:01.642Z,81
2023-03-29T00:39:03.827Z,80.9
2023-03-29T00:40:01.639Z,80.7
2023-03-29T00:41:02.253Z,80.5
2023-03-29T00:42:01.558Z,80.3
2023-03-29T00:43:02.108Z,80.2
2023-03-29T00:44:01.591Z,80.1
2023-03-29T00:45:02.067Z,79.9
2023-03-29T00:46:01.585Z,80
2023-03-29T00:47:02.043Z,79.7
2023-03-29T00:48:01.572Z,80
2023-03-29T00:49:01.955Z,80
2023-03-29T00:50:01.514Z,80
2023-03-29T00:51:03.876Z,79.7
2023-03-29T00:52:03.067Z,79.4
2023-03-29T00:53:03.559Z,79.1
2023-03-29T00:54:01.373Z,78.8
2023-03-29T00:55:01.961Z,78.5
2023-03-29T00:56:03.011Z,78.4
2023-03-29T00:57:01.824Z,78.3
2023-03-29T00:58:02.263Z,78.3
2023-03-29T00:59:03.393Z,78.6
2023-03-29T01:00:03.870Z,78.7
2023-03-29T01:01:03.619Z,79
2023-03-29T01:02:04.043Z,79.1
2023-03-29T01:03:03.449Z,79.1
2023-03-29T01:04:02.309Z,79.1
2023-03-29T01:05:01.617Z,79.4
2023-03-29T01:06:02.118Z,79.6
2023-03-29T01:07:01.680Z,79.6
2023-03-29T01:08:02.109Z,79.7
2023-03-29T01:09:02.984Z,79.8
2023-03-29T01:10:01.731Z,80
2023-03-29T01:11:02.409Z,80.1
2023-03-29T01:12:01.736Z,80.1
2023-03-29T01:13:02.199Z,80.3
2023-03-29T01:14:01.631Z,80.3
2023-03-29T01:15:02.129Z,80.6
2023-03-29T01:16:01.582Z,81.1
2023-03-29T01:17:02.051Z,81.4
2023-03-29T01:18:01.600Z,81.7
2023-03-29T01:19:02.038Z,81.8
2023-03-29T01:20:01.524Z,81.9
2023-03-29T01:21:02.042Z,82.1
2023-03-29T01:22:01.590Z,82.1
2023-03-29T01:23:01.947Z,81.9
2023-03-29T01:24:01.397Z,81.5
2023-03-29T01:25:01.873Z,81.2
2023-03-29T01:26:01.392Z,81.5
2023-03-29T01:27:01.895Z,81.6
2023-03-29T01:28:01.318Z,81.8
2023-03-29T01:29:02.015Z,81.8
2023-03-29T01:30:02.287Z,81.6
2023-03-29T01:31:02.008Z,81.4
2023-03-29T01:32:02.340Z,81.4
2023-03-29T01:33:01.786Z,81.4
2023-03-29T01:34:02.178Z,81.3
2023-03-29T01:35:01.716Z,81.3
2023-03-29T01:36:03.916Z,81.6
2023-03-29T01:37:01.657Z,81.9
2023-03-29T01:38:02.145Z,82
2023-03-29T01:39:01.633Z,82.1
2023-03-29T01:40:02.124Z,82.4
2023-03-29T01:41:01.719Z,82.6
2023-03-29T01:42:02.142Z,82.7
2023-03-29T01:43:03.229Z,82.7
2023-03-29T01:44:02.036Z,82.6
2023-03-29T01:45:03.239Z,82.4
2023-03-29T01:46:02.065Z,82.2
2023-03-29T01:47:01.499Z,82
2023-03-29T01:48:02.137Z,81.9
2023-03-29T01:49:03.148Z,81.9
2023-03-29T01:50:03.633Z,81.8
2023-03-29T01:51:01.732Z,82
2023-03-29T01:52:01.970Z,82.2
2023-03-29T01:53:03.079Z,82.6
2023-03-29T01:54:01.882Z,82.8
2023-03-29T01:55:03.259Z,82.9
2023-03-29T01:56:01.869Z,82.8
2023-03-29T01:57:01.417Z,82.9
2023-03-29T01:58:01.826Z,83
2023-03-29T01:59:04.101Z,83.1
2023-03-29T02:00:01.843Z,83.4
2023-03-29T02:01:04.272Z,83.5
2023-03-29T02:02:01.716Z,83.4
2023-03-29T02:03:02.283Z,83.4
2023-03-29T02:04:01.715Z,83.4
2023-03-29T02:05:02.220Z,83.1
2023-03-29T02:06:01.655Z,82.9
2023-03-29T02:07:02.192Z,82.6
2023-03-29T02:08:01.656Z,82.3
2023-03-29T02:09:02.109Z,82
2023-03-29T02:10:01.662Z,81.7
2023-03-29T02:11:02.417Z,81.6
2023-03-29T02:12:01.552Z,81.4
2023-03-29T02:13:02.030Z,81.2
2023-03-29T02:14:01.559Z,81
2023-03-29T02:15:02.069Z,81
2023-03-29T02:16:03.256Z,81
2023-03-29T02:17:02.191Z,81.2
2023-03-29T02:18:03.321Z,81.6
2023-03-29T02:19:02.110Z,81.4
2023-03-29T02:20:01.685Z,81.2
2023-03-29T02:21:04.068Z,81
2023-03-29T02:22:01.542Z,80.9
2023-03-29T02:23:02.045Z,80.7
2023-03-29T02:24:01.473Z,80.6
2023-03-29T02:25:02.031Z,80.1
2023-03-29T02:26:01.459Z,79.8
2023-03-29T02:27:01.977Z,80
2023-03-29T02:28:03.072Z,80.4
2023-03-29T02:29:01.931Z,80.4
2023-03-29T02:30:01.403Z,80.6
2023-03-29T02:31:02.126Z,80.7
2023-03-29T02:32:03.027Z,80.9
2023-03-29T02:33:01.968Z,81.2
2023-03-29T02:34:03.954Z,81.6
2023-03-29T02:35:01.718Z,82.1
2023-03-29T02:36:02.262Z,82.5
2023-03-29T02:37:03.395Z,82.6
2023-03-29T02:38:02.185Z,82.5
2023-03-29T02:39:01.629Z,82.1
2023-03-29T02:40:02.113Z,81.8
2023-03-29T02:41:01.718Z,81.4
2023-03-29T02:42:02.030Z,81
2023-03-29T02:43:03.168Z,80.9
2023-03-29T02:44:01.956Z,80.6
2023-03-29T02:45:01.479Z,80.3
2023-03-29T02:46:01.959Z,80.2
2023-03-29T02:47:01.434Z,79.9
2023-03-29T02:48:02.020Z,79.9
2023-03-29T02:49:03.072Z,79.8
2023-03-29T02:50:01.876Z,79.4
2023-03-29T02:51:02.638Z,79.3
2023-03-29T02:52:01.795Z,79
2023-03-29T02:53:02.283Z,78.7
2023-03-29T02:54:03.411Z,78.4
2023-03-29T02:55:03.880Z,78.2
2023-03-29T02:56:01.731Z,77.9
2023-03-29T02:57:02.215Z,78
2023-03-29T02:58:01.714Z,77.8
2023-03-29T02:59:02.194Z,77.6
2023-03-29T03:00:01.634Z,77.8
2023-03-29T03:01:02.346Z,77.8
2023-03-29T03:02:01.688Z,77.7
2023-03-29T03:03:02.435Z,77.8
2023-03-29T03:04:01.698Z,77.6
2023-03-29T03:05:02.123Z,78.1
2023-03-29T03:06:01.624Z,77.8
2023-03-29T03:07:02.137Z,77.7
2023-03-29T03:08:03.225Z,77.3
2023-03-29T03:09:03.707Z,77.4
2023-03-29T03:10:01.569Z,77.3
2023-03-29T03:11:03.984Z,76.9
2023-03-29T03:12:01.583Z,77.3
2023-03-29T03:13:02.092Z,76.8
2023-03-29T03:14:01.488Z,76.1
2023-03-29T03:15:01.963Z,75.9
2023-03-29T03:16:01.536Z,76.1
2023-03-29T03:17:04.528Z,75.7
2023-03-29T03:18:01.489Z,76.6
2023-03-29T03:19:01.975Z,76.8
2023-03-29T03:20:01.394Z,76.9
2023-03-29T03:21:02.370Z,76.7
2023-03-29T03:22:01.408Z,77
2023-03-29T03:23:01.873Z,77
2023-03-29T03:24:01.436Z,76.8
2023-03-29T03:25:02.124Z,77.2
2023-03-29T03:26:01.649Z,77.1
2023-03-29T03:27:02.128Z,77.1
2023-03-29T03:28:01.556Z,76.6
2023-03-29T03:29:02.060Z,76.6
2023-03-29T03:30:01.549Z,76.6
2023-03-29T03:31:02.163Z,75.9
2023-03-29T03:32:01.511Z,75.1
2023-03-29T03:33:02.043Z,75.6
2023-03-29T03:34:01.461Z,75.3
2023-03-29T03:35:01.955Z,75.3
2023-03-29T03:36:03.176Z,75.3
2023-03-29T03:37:01.982Z,74.9
2023-03-29T03:38:01.420Z,75.2
2023-03-29T03:39:01.884Z,75.4
2023-03-29T03:41:02.084Z,75.7
2023-03-29T03:42:02.263Z,76.1
2023-03-29T03:43:01.738Z,75.7
2023-03-29T03:44:03.871Z,75.6
2023-03-29T03:45:03.302Z,74.7
2023-03-29T03:46:03.958Z,75.2
2023-03-29T03:47:01.624Z,75.3
2023-03-29T03:48:02.210Z,75.6
2023-03-29T03:49:01.545Z,75.5
2023-03-29T03:50:02.033Z,75.7
2023-03-29T03:51:03.511Z,75.4
2023-03-29T03:52:02.033Z,75.1
2023-03-29T03:53:01.517Z,75.3
2023-03-29T03:54:02.013Z,75.4
2023-03-29T03:55:01.466Z,75
2023-03-29T03:56:01.936Z,74.4
2023-03-29T03:57:03.095Z,75.4
2023-03-29T03:58:01.889Z,74.8
2023-03-29T03:59:01.425Z,74.7
2023-03-29T04:00:01.867Z,75.3
2023-03-29T04:01:01.452Z,75.6
2023-03-29T04:02:03.485Z,76.1
2023-03-29T04:03:04.213Z,75.7
2023-03-29T04:04:01.956Z,76
2023-03-29T04:05:02.285Z,75.5
2023-03-29T04:06:01.707Z,76
2023-03-29T04:07:02.254Z,75.1
2023-03-29T04:08:01.722Z,75.2
2023-03-29T04:09:02.188Z,75.5
2023-03-29T04:10:01.676Z,75.7
2023-03-29T04:11:02.269Z,75.2
2023-03-29T04:12:01.653Z,74.9
2023-03-29T04:13:02.116Z,74.8
2023-03-29T04:14:03.225Z,75.7
2023-03-29T04:15:02.044Z,75.4
2023-03-29T04:16:01.977Z,75.4
2023-03-29T04:17:02.032Z,75.2
2023-03-29T04:18:01.523Z,75.6
2023-03-29T04:19:02.030Z,76
2023-03-29T04:20:01.513Z,75.6
2023-03-29T04:21:03.829Z,76.1
2023-03-29T04:22:03.066Z,76.2
2023-03-29T04:23:01.864Z,76.1
2023-03-29T04:24:01.306Z,76.3
2023-03-29T04:25:01.874Z,75.6
2023-03-29T04:26:02.288Z,75.8
2023-03-29T04:27:01.801Z,75.5
2023-03-29T04:28:02.285Z,76
2023-03-29T04:29:03.406Z,75.9
2023-03-29T04:30:02.222Z,75.7
2023-03-29T04:31:01.969Z,76.2
2023-03-29T04:32:02.195Z,75.6
2023-03-29T04:33:02.042Z,75.7
2023-03-29T04:34:03.061Z,75.9
2023-03-29T04:35:01.879Z,75.9
2023-03-29T04:36:01.449Z,76.7
2023-03-29T04:37:01.880Z,76.8
2023-03-29T04:38:01.314Z,76.5
2023-03-29T04:39:03.450Z,76.3
2023-03-29T04:40:03.968Z,76.1
2023-03-29T04:41:03.657Z,76
2023-03-29T04:42:02.200Z,76.4
2023-03-29T04:43:01.719Z,77
2023-03-29T04:44:02.194Z,76.9
2023-03-29T04:45:01.692Z,77
2023-03-29T04:46:02.178Z,76.5
2023-03-29T04:47:01.632Z,77.1
2023-03-29T04:48:02.203Z,77.3
2023-03-29T04:49:01.645Z,77.3
2023-03-29T04:50:02.123Z,77
2023-03-29T04:51:03.382Z,77.1
2023-03-29T04:52:03.725Z,77.1
2023-03-29T04:53:01.611Z,77.2
2023-03-29T04:54:02.035Z,77.2
2023-03-29T04:55:01.580Z,76.9
2023-03-29T04:56:03.756Z,76.9
2023-03-29T04:57:01.607Z,77
2023-03-29T04:58:02.038Z,77.1
2023-03-29T04:59:01.575Z,77.5
2023-03-29T05:00:02.093Z,77.4
2023-03-29T05:01:03.335Z,77.2
2023-03-29T05:02:02.107Z,77.6
2023-03-29T05:03:01.488Z,77.9
2023-03-29T05:04:02.211Z,78.1
2023-03-29T05:05:01.769Z,77.9
2023-03-29T05:06:02.273Z,78
2023-03-29T05:07:01.721Z,77.9
2023-03-29T05:08:02.301Z,77.9
2023-03-29T05:09:01.707Z,78
2023-03-29T05:10:02.273Z,78.1
2023-03-29T05:11:02.020Z,78.2
2023-03-29T05:12:02.361Z,78.1
2023-03-29T05:13:01.810Z,78.1
2023-03-29T05:14:02.283Z,78.1
2023-03-29T05:15:01.908Z,78
2023-03-29T05:16:02.324Z,78.1
2023-03-29T05:17:01.806Z,78.4
2023-03-29T05:18:01.379Z,78.8
2023-03-29T05:19:03.629Z,78.9
2023-03-29T05:20:01.463Z,79
2023-03-29T05:21:02.189Z,78.8
2023-03-29T05:22:01.466Z,79
2023-03-29T05:23:01.997Z,79.2
2023-03-29T05:24:01.467Z,79.2
2023-03-29T05:25:02.049Z,78.9
2023-03-29T05:26:01.465Z,79.3
2023-03-29T05:27:02.055Z,79.4
2023-03-29T05:28:01.580Z,79.4
2023-03-29T05:29:02.139Z,79.3
2023-03-29T05:30:01.641Z,79.8
2023-03-29T05:31:02.484Z,79.9
2023-03-29T05:32:01.781Z,80.2
2023-03-29T05:33:02.234Z,80.3
2023-03-29T05:34:01.699Z,80.6
2023-03-29T05:35:02.202Z,80.8
2023-03-29T05:36:01.749Z,80.9
2023-03-29T05:37:01.337Z,81.1
2023-03-29T05:38:03.544Z,81.3
2023-03-29T05:39:01.374Z,81.1
2023-03-29T05:40:06.107Z,81.1
2023-03-29T05:41:01.571Z,81.3
2023-03-29T05:42:03.553Z,81.6
2023-03-29T05:43:03.008Z,81.7
2023-03-29T05:44:01.872Z,81.6
2023-03-29T05:46:01.876Z,81.6
2023-03-29T05:47:02.274Z,81.7
2023-03-29T05:48:01.931Z,81.8
2023-03-29T05:49:03.957Z,82
2023-03-29T05:50:01.715Z,82
2023-03-29T05:51:02.387Z,81.9
2023-03-29T05:52:01.622Z,82.1
2023-03-29T05:53:02.113Z,82.3
2023-03-29T05:54:01.637Z,82.5
2023-03-29T05:55:03.839Z,82.5
2023-03-29T05:56:01.541Z,82.3
2023-03-29T05:57:03.746Z,82.5
2023-03-29T05:58:01.536Z,82.6
2023-03-29T05:59:03.710Z,82.5
2023-03-29T06:00:01.466Z,82.4
2023-03-29T06:01:02.169Z,82.5
2023-03-29T06:02:03.172Z,82.6
2023-03-29T06:03:13.658Z,82.6
2023-03-29T06:04:01.440Z,82.7
2023-03-29T06:05:01.923Z,82.7
2023-03-29T06:06:01.333Z,82.5
2023-03-29T06:07:01.799Z,82.4
2023-03-29T06:08:02.354Z,82.4
2023-03-29T06:09:01.792Z,82.4
2023-03-29T06:10:02.273Z,82.7
2023-03-29T06:11:04.869Z,82.7
2023-03-29T06:12:02.275Z,82.5
2023-03-29T06:13:01.718Z,82.3
2023-03-29T06:14:02.191Z,82.4
2023-03-29T06:15:01.705Z,82.5
2023-03-29T06:16:02.124Z,82.4
2023-03-29T06:17:03.375Z,82.4
2023-03-29T06:18:02.156Z,82.2
2023-03-29T06:19:01.551Z,82.2
2023-03-29T06:20:03.705Z,82.4
2023-03-29T06:21:01.751Z,82.4
2023-03-29T06:22:02.037Z,82.2
2023-03-29T06:23:01.481Z,82
2023-03-29T06:24:01.949Z,82.2
2023-03-29T06:25:01.476Z,82.1
2023-03-29T06:26:01.964Z,82
2023-03-29T06:27:01.508Z,81.7
2023-03-29T06:28:01.957Z,81.8
2023-03-29T06:29:01.393Z,81.8
2023-03-29T06:30:01.871Z,81.7
2023-03-29T06:31:01.642Z,81.9
2023-03-29T06:32:01.914Z,81.3
2023-03-29T06:33:01.391Z,81.7
2023-03-29T06:34:01.796Z,81.9
2023-03-29T06:35:02.287Z,81.6
2023-03-29T06:36:01.870Z,81.9
2023-03-29T06:37:02.303Z,81.8
2023-03-29T06:38:01.703Z,81.8
2023-03-29T06:39:02.266Z,81.5
2023-03-29T06:40:01.710Z,81.7
2023-03-29T06:41:02.532Z,81.4
2023-03-29T06:42:09.994Z,81.4
2023-03-29T06:43:02.192Z,81.4
2023-03-29T06:44:03.369Z,81.6
2023-03-29T06:45:02.111Z,81.6
2023-03-29T06:46:01.564Z,81.8
2023-03-29T06:47:02.060Z,81.5
2023-03-29T06:48:01.580Z,81.5
2023-03-29T06:49:02.297Z,81.6
2023-03-29T06:50:02.941Z,81.5
2023-03-29T06:51:01.821Z,81.5
2023-03-29T06:52:03.907Z,81.6
2023-03-29T06:53:01.648Z,81.2
2023-03-29T06:54:02.128Z,81.1
2023-03-29T06:55:03.228Z,81.5
2023-03-29T06:56:02.048Z,81.5
2023-03-29T06:57:01.593Z,81.2
2023-03-29T06:58:03.745Z,80.9
2023-03-29T06:59:01.467Z,81
2023-03-29T07:00:02.046Z,80.8
2023-03-29T07:01:01.650Z,80.6
2023-03-29T07:02:03.717Z,80.5
2023-03-29T07:03:03.207Z,80.4
2023-03-29T07:04:01.980Z,80.5
2023-03-29T07:05:03.079Z,80.6
2023-03-29T07:06:01.949Z,80.7
2023-03-29T07:07:01.667Z,80.9
2023-03-29T07:08:01.886Z,80.8
2023-03-29T07:09:01.784Z,80.6
2023-03-29T07:10:01.895Z,80.3
2023-03-29T07:11:01.667Z,80.3
2023-03-29T07:12:01.872Z,80.4
2023-03-29T07:13:01.461Z,80.6
2023-03-29T07:14:01.874Z,80.5
2023-03-29T07:15:01.326Z,80.2
2023-03-29T07:16:01.927Z,80.3
2023-03-29T07:17:01.338Z,80.4
2023-03-29T07:18:01.912Z,80.1
2023-03-29T07:19:01.330Z,80.4
2023-03-29T07:20:01.824Z,80.4
2023-03-29T07:21:01.559Z,80.1
2023-03-29T07:22:01.865Z,79.8
2023-03-29T07:23:01.670Z,79.7
2023-03-29T07:24:01.871Z,79.9
2023-03-29T07:25:01.427Z,79.8
2023-03-29T07:26:01.967Z,80.3
2023-03-29T07:27:04.538Z,80.3
2023-03-29T07:28:02.147Z,79.9
2023-03-29T07:29:01.630Z,79.8
2023-03-29T07:30:02.136Z,80.1
2023-03-29T07:31:02.150Z,80
2023-03-29T07:32:03.878Z,79.6
2023-03-29T07:33:01.880Z,79.5
2023-03-29T07:34:02.186Z,79.8
2023-03-29T07:35:01.740Z,80
2023-03-29T07:36:01.446Z,79.4
2023-03-29T07:37:03.628Z,78.9
2023-03-29T07:38:01.556Z,78.9
2023-03-29T07:39:02.057Z,79.4
2023-03-29T07:40:01.582Z,79.2
2023-03-29T07:41:04.195Z,79.1
2023-03-29T07:42:01.751Z,79
2023-03-29T07:43:03.941Z,78.6
2023-03-29T07:44:03.337Z,79.1
2023-03-29T07:45:01.313Z,79
2023-03-29T07:46:03.570Z,78.7
2023-03-29T07:47:01.401Z,78.9
2023-03-29T07:48:02.029Z,78.9
2023-03-29T07:49:01.554Z,79
2023-03-29T07:50:02.212Z,78.8
2023-03-29T07:51:02.069Z,78.8
2023-03-29T07:52:01.325Z,78.2
2023-03-29T07:53:01.887Z,78
2023-03-29T07:54:01.509Z,78.5
2023-03-29T07:55:02.191Z,78.3
2023-03-29T07:56:01.973Z,78.3
2023-03-29T07:57:01.673Z,78.8
2023-03-29T07:58:01.392Z,78.3
2023-03-29T07:59:02.042Z,78
2023-03-29T08:00:02.001Z,78.5
2023-03-29T08:01:03.452Z,78.1
2023-03-29T08:02:02.052Z,77.7
2023-03-29T08:03:01.535Z,77.2
2023-03-29T08:04:01.990Z,77.8
2023-03-29T08:05:01.584Z,77.8
2023-03-29T08:06:01.975Z,77.9
2023-03-29T08:07:01.393Z,77.8
2023-03-29T08:08:01.885Z,77.4
2023-03-29T08:09:01.403Z,77.5
2023-03-29T08:10:01.921Z,78.4
2023-03-29T08:11:01.459Z,78.2
2023-03-29T08:12:01.771Z,78.6
2023-03-29T08:13:02.359Z,78.1
2023-03-29T08:14:01.814Z,77.1
2023-03-29T08:15:02.323Z,77.9
2023-03-29T08:16:01.789Z,78.4
2023-03-29T08:17:02.310Z,77.8
2023-03-29T08:18:01.777Z,77.4
2023-03-29T08:19:02.201Z,77.4
2023-03-29T08:20:01.719Z,76.9
2023-03-29T08:21:02.409Z,77.7
2023-03-29T08:22:01.634Z,77.4
2023-03-29T08:23:02.134Z,76.8
2023-03-29T08:24:01.628Z,76.3
2023-03-29T08:25:02.124Z,76.6
2023-03-29T08:26:01.649Z,77.1
2023-03-29T08:27:03.712Z,76.8
2023-03-29T08:28:03.223Z,76.8
2023-03-29T08:29:02.084Z,76.9
2023-03-29T08:30:01.562Z,76.3
2023-03-29T08:31:02.228Z,75.9
2023-03-29T08:32:01.510Z,76.4
2023-03-29T08:33:01.992Z,76.1
2023-03-29T08:34:03.066Z,76.5
2023-03-29T08:35:01.967Z,76.7
2023-03-29T08:36:01.405Z,76.6
2023-03-29T08:37:03.584Z,76.4
2023-03-29T08:38:01.399Z,76.7
2023-03-29T08:39:01.884Z,76.5
2023-03-29T08:40:01.311Z,76.1
2023-03-29T08:41:03.665Z,75.9
2023-03-29T08:42:02.271Z,76.5
2023-03-29T08:43:01.835Z,76.3
2023-03-29T08:44:02.281Z,75.7
2023-03-29T08:45:01.721Z,75.8
2023-03-29T08:46:02.217Z,75.6
2023-03-29T08:47:01.826Z,76.2
2023-03-29T08:48:03.931Z,76
2023-03-29T08:49:01.763Z,76.2
2023-03-29T08:50:02.193Z,76.4
2023-03-29T08:51:01.935Z,75.6
2023-03-29T08:52:02.121Z,76.4
2023-03-29T08:53:01.675Z,75.3
2023-03-29T08:54:02.144Z,74.7
2023-03-29T08:55:01.557Z,75.2
2023-03-29T08:56:02.115Z,75.7
2023-03-29T08:57:01.624Z,75.9
2023-03-29T08:58:02.035Z,75.6
2023-03-29T08:59:01.539Z,75.3
2023-03-29T09:00:02.018Z,75.1
2023-03-29T09:01:01.723Z,75.7
2023-03-29T09:02:02.059Z,75.5
2023-03-29T09:03:01.577Z,75
2023-03-29T09:04:02.061Z,74.8
2023-03-29T09:05:01.468Z,75.5
2023-03-29T09:06:01.976Z,75.7
2023-03-29T09:07:01.475Z,75.5
2023-03-29T09:08:01.945Z,76.2
2023-03-29T09:09:01.567Z,75
2023-03-29T09:10:01.435Z,75.2
2023-03-29T09:11:03.857Z,75.2
2023-03-29T09:12:01.295Z,74.8
2023-03-29T09:13:01.827Z,74.3
2023-03-29T09:14:02.265Z,74.1
2023-03-29T09:15:03.418Z,75.6
2023-03-29T09:16:03.978Z,75.1
2023-03-29T09:17:01.725Z,75.2
2023-03-29T09:18:02.239Z,75.4
2023-03-29T09:19:01.729Z,75
2023-03-29T09:20:03.820Z,75.3
2023-03-29T09:21:01.850Z,74.7
2023-03-29T09:22:02.121Z,73.8
2023-03-29T09:23:01.582Z,73.2
2023-03-29T09:24:03.705Z,73.5
2023-03-29T09:25:01.550Z,73.2
2023-03-29T09:26:02.032Z,73.8
2023-03-29T09:27:01.468Z,73.3
2023-03-29T09:28:01.990Z,74.2
2023-03-29T09:29:01.475Z,73.8
2023-03-29T09:30:01.970Z,72
2023-03-29T09:31:01.622Z,72.5
2023-03-29T09:32:01.919Z,73.1
2023-03-29T09:33:03.188Z,72.9
2023-03-29T09:34:03.471Z,72.2
2023-03-29T09:35:03.944Z,71.8
2023-03-29T09:36:03.601Z,70.9
2023-03-29T09:37:02.264Z,70.8
2023-03-29T09:38:01.704Z,72
2023-03-29T09:39:02.220Z,72
2023-03-29T09:40:04.540Z,73.1
2023-03-29T09:41:02.454Z,71.8
2023-03-29T09:42:03.301Z,71.5
2023-03-29T09:43:02.117Z,70.9
2023-03-29T09:44:01.577Z,73.2
2023-03-29T09:45:03.708Z,71
2023-03-29T09:46:01.638Z,71.2
2023-03-29T09:47:02.048Z,70.5
2023-03-29T09:48:01.491Z,71.2
2023-03-29T09:49:01.974Z,71.1
2023-03-29T09:50:01.514Z,70.8
2023-03-29T09:51:03.856Z,71.2
2023-03-29T09:52:01.396Z,70.4
2023-03-29T09:53:03.576Z,70.6
2023-03-29T09:54:01.316Z,71.3
2023-03-29T09:55:01.873Z,72.1
2023-03-29T09:56:02.304Z,71.5
2023-03-29T09:57:03.450Z,71.1
2023-03-29T09:58:02.290Z,70
2023-03-29T09:59:01.762Z,71
2023-03-29T10:00:03.888Z,70.9
2023-03-29T10:01:02.153Z,71.4
2023-03-29T10:02:02.197Z,71.1
2023-03-29T10:03:01.732Z,71.6
2023-03-29T10:04:02.181Z,71.7
2023-03-29T10:05:03.234Z,70.6
2023-03-29T10:06:02.035Z,70.3
2023-03-29T10:07:01.562Z,70.9
2023-03-29T10:08:02.066Z,70.5
2023-03-29T10:09:01.501Z,69.5
2023-03-29T10:10:01.990Z,69.5
2023-03-29T10:11:03.535Z,71.1
2023-03-29T10:12:01.955Z,70.5
2023-03-29T10:13:01.386Z,70.2
2023-03-29T10:14:01.873Z,69.3
2023-03-29T10:15:01.460Z,69.1
2023-03-29T10:16:01.959Z,69.6
2023-03-29T10:17:01.399Z,69.5
2023-03-29T10:18:02.982Z,69.3
2023-03-29T10:19:01.633Z,70.4
2023-03-29T10:20:03.980Z,69.2
2023-03-29T10:21:01.931Z,68.9
2023-03-29T10:22:02.035Z,70
2023-03-29T10:23:03.158Z,70.4
2023-03-29T10:24:02.078Z,70.4
2023-03-29T10:25:01.502Z,69.8
2023-03-29T10:26:01.970Z,69.2
2023-03-29T10:27:01.398Z,68.6
2023-03-29T10:28:01.865Z,69.4
2023-03-29T10:29:01.392Z,71.2
2023-03-29T10:30:03.566Z,69.6
2023-03-29T10:31:01.615Z,68.7
2023-03-29T10:32:01.866Z,70.2
2023-03-29T10:33:03.969Z,70.5
2023-03-29T10:34:01.789Z,69.2
2023-03-29T10:35:02.278Z,69.4
2023-03-29T10:36:03.450Z,69.8
2023-03-29T10:37:02.197Z,70.5
2023-03-29T10:38:01.705Z,69.2
2023-03-29T10:39:05.763Z,69.7
2023-03-29T10:40:01.624Z,69.2
2023-03-29T10:41:02.293Z,69.8
2023-03-29T10:42:01.657Z,69.6
2023-03-29T10:43:02.100Z,68.2
2023-03-29T10:44:01.556Z,69
2023-03-29T10:45:02.038Z,69.5
2023-03-29T10:46:01.553Z,68.7
2023-03-29T10:47:03.731Z,69.1
2023-03-29T10:48:03.187Z,68
2023-03-29T10:49:01.951Z,68.5
2023-03-29T10:50:01.493Z,68.1
2023-03-29T10:51:02.258Z,70
2023-03-29T10:52:03.083Z,69.6
2023-03-29T10:53:01.906Z,69.2
2023-03-29T10:54:01.428Z,69.3
2023-03-29T10:55:03.560Z,68.8
2023-03-29T10:56:01.363Z,68.2
2023-03-29T10:57:01.888Z,70.2
2023-03-29T10:58:03.963Z,69.9
2023-03-29T10:59:01.825Z,67.5
2023-03-29T11:00:02.308Z,67.3
2023-03-29T11:01:02.073Z,67.6
2023-03-29T11:02:03.292Z,67.6
2023-03-29T11:03:02.182Z,68.4
2023-03-29T11:04:01.684Z,69.5
2023-03-29T11:05:02.120Z,68.9
2023-03-29T11:06:01.620Z,69
2023-03-29T11:07:02.309Z,68.7
2023-03-29T11:08:03.479Z,68.5
2023-03-29T11:09:03.073Z,67.6
2023-03-29T11:10:01.883Z,69.1
2023-03-29T11:11:01.537Z,69
2023-03-29T11:12:15.095Z,68.8
2023-03-29T11:13:03.166Z,67.8
2023-03-29T11:14:02.130Z,68.1
2023-03-29T11:15:01.877Z,67.8
2023-03-29T11:16:03.925Z,69.6
2023-03-29T11:17:01.790Z,67.9
2023-03-29T11:18:01.423Z,69.4
2023-03-29T11:19:01.864Z,69.1
2023-03-29T11:20:04.439Z,68
2023-03-29T11:21:02.307Z,70.1
2023-03-29T11:22:01.800Z,68.5
2023-03-29T11:23:02.265Z,67.7
2023-03-29T11:24:01.816Z,66.6
2023-03-29T11:25:01.415Z,66.1
2023-03-29T11:26:03.865Z,65.9
2023-03-29T11:27:02.291Z,65.8
2023-03-29T11:28:01.742Z,66.1
2023-03-29T11:29:02.281Z,66.7
2023-03-29T11:30:01.736Z,65.7
2023-03-29T11:31:04.031Z,66.1
2023-03-29T11:32:01.691Z,66.2
2023-03-29T11:33:02.145Z,66.7
2023-03-29T11:34:01.619Z,67.9
2023-03-29T11:35:02.135Z,67
2023-03-29T11:36:01.667Z,66
2023-03-29T11:37:02.127Z,67
2023-03-29T11:38:01.627Z,68
2023-03-29T11:39:02.134Z,68.2
2023-03-29T11:40:01.538Z,69.1
2023-03-29T11:41:02.271Z,69.4
2023-03-29T11:42:01.541Z,69.1
2023-03-29T11:43:02.028Z,68.3
2023-03-29T11:44:03.154Z,68.5
2023-03-29T11:45:01.938Z,67.3
2023-03-29T11:46:01.487Z,67.3
2023-03-29T11:47:03.750Z,68.9
2023-03-29T11:48:01.421Z,68.8
2023-03-29T11:49:01.869Z,67.9
2023-03-29T11:50:01.417Z,67.7
2023-03-29T11:51:02.122Z,66.7
2023-03-29T11:52:01.297Z,66.8
2023-03-29T11:53:03.480Z,66.6
2023-03-29T11:55:01.769Z,67.4
2023-03-29T11:56:03.945Z,66.5
2023-03-29T11:57:01.823Z,66.5
2023-03-29T11:58:02.302Z,67.2
2023-03-29T11:59:01.719Z,65.9
2023-03-29T12:00:02.188Z,65.9
2023-03-29T12:01:01.879Z,66.2
2023-03-29T12:02:02.229Z,66.5
2023-03-29T12:03:03.447Z,65.6
2023-03-29T12:04:02.248Z,65.7
2023-03-29T12:05:01.681Z,66.2
2023-03-29T12:06:02.098Z,67.3
2023-03-29T12:07:01.577Z,65.2
2023-03-29T12:08:02.101Z,65.8
2023-03-29T12:09:01.555Z,66
2023-03-29T12:10:02.053Z,64.5
2023-03-29T12:11:01.693Z,66
2023-03-29T12:12:02.026Z,65.4
2023-03-29T12:13:01.468Z,65
2023-03-29T12:14:02.028Z,65.5
2023-03-29T12:15:01.462Z,66.8
2023-03-29T12:16:03.682Z,65.2
2023-03-29T12:17:01.508Z,65
2023-03-29T12:18:02.021Z,66.7
2023-03-29T12:19:01.395Z,67.7
2023-03-29T12:20:03.563Z,67.7
2023-03-29T12:21:01.389Z,66.8
2023-03-29T12:22:03.543Z,65
2023-03-29T12:23:01.401Z,66
2023-03-29T12:24:01.858Z,64.4
2023-03-29T12:25:01.300Z,64.8
2023-03-29T12:26:01.804Z,65.3
2023-03-29T12:27:03.946Z,65.6
2023-03-29T12:28:03.473Z,66.3
2023-03-29T12:29:03.939Z,65.3
2023-03-29T12:30:01.792Z,65
2023-03-29T12:31:02.612Z,65.9
2023-03-29T12:32:01.764Z,66.2
2023-03-29T12:33:02.359Z,66.8
2023-03-29T12:34:02.038Z,65.8
2023-03-29T12:35:01.967Z,65.5
2023-03-29T12:36:03.293Z,66.3
2023-03-29T12:38:01.793Z,65.7
2023-03-29T12:39:02.298Z,65.3
2023-03-29T12:40:03.501Z,65.1
2023-03-29T12:41:02.424Z,65.1
2023-03-29T12:42:01.727Z,65.2
2023-03-29T12:43:03.885Z,65.7
2023-03-29T12:44:03.316Z,66
2023-03-29T12:45:02.132Z,66.3
2023-03-29T12:46:02.017Z,64.9
2023-03-29T12:47:03.806Z,64.8
2023-03-29T12:48:01.592Z,65.4
2023-03-29T12:49:02.038Z,66.5
2023-03-29T12:50:01.672Z,66.9
2023-03-29T12:51:03.757Z,64.3
2023-03-29T12:52:01.471Z,64.5
2023-03-29T12:53:01.972Z,65.6
2023-03-29T12:54:03.161Z,66.2
2023-03-29T12:55:03.641Z,65.4
2023-03-29T12:56:01.850Z,65.7
2023-03-29T12:57:03.618Z,65.7
2023-03-29T12:58:01.332Z,65.5
2023-03-29T12:59:01.808Z,65.2
2023-03-29T13:00:02.305Z,64.3
2023-03-29T13:01:04.302Z,65
2023-03-29T13:02:02.348Z,66.9
2023-03-29T13:03:01.777Z,65
2023-03-29T13:04:02.270Z,64.7
2023-03-29T13:05:01.767Z,64.2
2023-03-29T13:06:04.124Z,64.5
2023-03-29T13:07:01.863Z,64.8
2023-03-29T13:08:02.199Z,64.8
2023-03-29T13:09:01.716Z,66.4
2023-03-29T13:10:02.193Z,64.5
2023-03-29T13:11:01.712Z,64.5
2023-03-29T13:12:02.218Z,65.3
2023-03-29T13:13:03.384Z,65.8
2023-03-29T13:14:02.190Z,65.2
2023-03-29T13:15:01.718Z,64.5
2023-03-29T13:16:02.597Z,65
2023-03-29T13:17:15.521Z,65.3
2023-03-29T13:18:02.181Z,64.9
2023-03-29T13:19:01.627Z,64.1
2023-03-29T13:20:02.122Z,64.8
2023-03-29T13:21:01.661Z,63.8
2023-03-29T13:22:02.108Z,64.7
2023-03-29T13:23:01.555Z,64.7
2023-03-29T13:24:03.794Z,63.7
2023-03-29T13:25:03.284Z,63.8
2023-03-29T13:26:02.239Z,63.6
2023-03-29T13:27:01.561Z,63.6
2023-03-29T13:28:03.764Z,63.5